Berkeley Township, New Jersey
Current Conditions -  °F | °C
As of 12:55 PM on Thursday 30 Oct 2014 (Local Time) from KMJX Reporting Station
Clear Clear  
Wind Chill: 59°   Ceiling: Unl
Heat Index: 59°   Visibility: 10mi
Dew Point: 36°   Wind: 7mph
Humidity: 42%   Direction: 300°WNW
Pressure: 29.99"   Gusts: NA
Location:  39.9559°N, 74.2574°W
Report Text: KMJX 301655Z AUTO 30006KT 10SM CLR 15/02 A2999 RMK AO1
Loading
Personal Weather Stations






























Interactive Weather Map
Tropical Storm Tracking
New forecast layout! Learn more

10-Day Weather Forecast

Advertisements
Track Severe Weather on mobile